Time;durP1;ratioP1;P1;durP2;ratioP2;P2;SDS_P1;SDS_P2;PMS_P1;PMS_P2;Temp;Humidity;BMP_temperature;BMP_pressure;BME280_temperature;BME280_humidity;BME280_pressure;Samples;Min_cycle;Max_cycle;Signal;HPM_P1;HPM_P2
2022/06/24 07:30:23;;;;;;;;;;;15.20;61.50;;;;;;5034683;28;20028;-69
2022/06/24 07:32:50;;;;;;;;;;;15.20;61.10;;;;;;5050513;28;19917;-70
2022/06/24 07:35:16;;;;;;;;;;;15.20;61.10;;;;;;5037374;28;19968;-70
2022/06/24 07:37:43;;;;;;;;;;;15.20;61.00;;;;;;5052971;28;19912;-70
2022/06/24 07:40:09;;;;;;;;;;;15.20;61.00;;;;;;5021467;28;19909;-69
2022/06/24 07:42:36;;;;;;;;;;;15.20;61.20;;;;;;5030249;28;19912;-70
2022/06/24 07:45:03;;;;;;;;;;;15.20;61.30;;;;;;5020487;28;19971;-70
2022/06/24 07:47:29;;;;;;;;;;;15.20;61.50;;;;;;5025593;28;19913;-70
2022/06/24 07:49:56;;;;;;;;;;;15.20;61.50;;;;;;5034731;28;19919;-70
2022/06/24 07:52:22;;;;;;;;;;;15.20;61.60;;;;;;5054460;28;19952;-70
2022/06/24 07:56:56;;;;;;;;;;;15.20;61.40;;;;;;5044940;28;19924;-70
2022/06/24 07:57:35;;;;;;;;;;;15.20;61.40;;;;;;5045753;28;19921;-70
2022/06/24 08:00:02;;;;;;;;;;;15.20;61.30;;;;;;5050947;28;19959;-70
2022/06/24 08:02:28;;;;;;;;;;;15.20;61.30;;;;;;5050671;28;20356;-70
2022/06/24 08:04:55;;;;;;;;;;;15.20;61.40;;;;;;5052227;28;19916;-70
2022/06/24 08:07:22;;;;;;;;;;;15.10;61.60;;;;;;5049216;28;19925;-70
2022/06/24 08:09:48;;;;;;;;;;;15.10;61.70;;;;;;5045771;28;19924;-70
2022/06/24 08:12:15;;;;;;;;;;;15.10;61.80;;;;;;5048415;28;20405;-70
2022/06/24 08:14:41;;;;;;;;;;;15.10;61.70;;;;;;5047568;28;19913;-70
2022/06/24 08:17:08;;;;;;;;;;;15.10;61.70;;;;;;5052911;28;19917;-70
2022/06/24 08:19:35;;;;;;;;;;;15.10;61.60;;;;;;5047196;28;19970;-70
2022/06/24 08:22:01;;;;;;;;;;;15.20;61.90;;;;;;5053810;28;19909;-70
2022/06/24 08:24:28;;;;;;;;;;;15.10;61.90;;;;;;5045959;28;19920;-70
2022/06/24 08:26:54;;;;;;;;;;;15.10;62.10;;;;;;5051212;28;19964;-70
2022/06/24 08:29:21;;;;;;;;;;;15.00;62.40;;;;;;5048455;28;19912;-70
2022/06/24 08:31:47;;;;;;;;;;;15.00;62.50;;;;;;5046830;28;19925;-70
2022/06/24 08:34:15;;;;;;;;;;;15.00;62.70;;;;;;5055361;28;20142;-70
2022/06/24 08:36:41;;;;;;;;;;;15.00;62.90;;;;;;5052854;28;19928;-70
2022/06/24 08:39:08;;;;;;;;;;;15.00;63.20;;;;;;5051095;28;19923;-70
2022/06/24 08:41:34;;;;;;;;;;;15.00;63.10;;;;;;5052545;28;20428;-69
2022/06/24 08:44:01;;;;;;;;;;;15.00;63.50;;;;;;5051877;28;20375;-67
2022/06/24 08:46:27;;;;;;;;;;;14.90;63.40;;;;;;5050010;28;19960;-69
2022/06/24 08:48:58;;;;;;;;;;;14.90;63.50;;;;;;5052296;28;19921;-69
2022/06/24 08:51:26;;;;;;;;;;;14.90;63.90;;;;;;5051944;28;19917;-69
2022/06/24 08:53:55;;;;;;;;;;;14.80;64.30;;;;;;5032344;28;19917;-69
2022/06/24 08:56:22;;;;;;;;;;;14.80;64.40;;;;;;5048933;28;20389;-70
2022/06/24 08:58:48;;;;;;;;;;;14.80;64.20;;;;;;5052091;28;19913;-70
2022/06/24 09:01:15;;;;;;;;;;;14.80;64.20;;;;;;5017347;28;19925;-69
2022/06/24 09:03:45;;;;;;;;;;;14.80;64.30;;;;;;5051731;28;20358;-70
2022/06/24 09:06:15;;;;;;;;;;;14.80;64.50;;;;;;5051532;28;20252;-69
2022/06/24 09:08:59;;;;;;;;;;;14.80;64.70;;;;;;5051660;28;20090;-69
2022/06/24 10:44:38;;;;;;;;;;;14.10;70.40;;;;;;5043187;28;20388;-70
2022/06/24 10:47:10;;;;;;;;;;;14.10;70.50;;;;;;5070341;28;20007;-73
2022/06/24 10:49:52;;;;;;;;;;;14.00;70.50;;;;;;5055456;28;19945;-71
2022/06/24 10:52:38;;;;;;;;;;;14.00;70.70;;;;;;5046566;28;19966;-72
2022/06/24 10:55:34;;;;;;;;;;;14.00;70.90;;;;;;5030134;28;19916;-72
2022/06/24 10:58:07;;;;;;;;;;;14.00;71.00;;;;;;5069807;28;19916;-74
2022/06/24 11:00:39;;;;;;;;;;;13.90;71.30;;;;;;5069292;28;20315;-76
2022/06/24 11:03:06;;;;;;;;;;;13.90;71.10;;;;;;5069710;28;20284;-71
2022/06/24 11:05:34;;;;;;;;;;;13.90;71.00;;;;;;5044288;28;19908;-73
2022/06/24 11:08:00;;;;;;;;;;;14.00;70.40;;;;;;5058946;28;20433;-74
2022/06/24 11:10:30;;;;;;;;;;;14.00;70.00;;;;;;5067259;28;19962;-73
2022/06/24 11:13:00;;;;;;;;;;;14.00;70.20;;;;;;5055771;28;19927;-74
2022/06/24 11:15:36;;;;;;;;;;;14.00;70.10;;;;;;5048450;28;20023;-73
2022/06/24 11:18:12;;;;;;;;;;;14.00;70.40;;;;;;5067709;28;19960;-74
2022/06/24 11:20:39;;;;;;;;;;;14.00;70.40;;;;;;5070063;28;19913;-74
2022/06/24 11:23:07;;;;;;;;;;;13.90;70.20;;;;;;5055645;28;19948;-74
2022/06/24 11:25:34;;;;;;;;;;;13.90;70.20;;;;;;5041321;28;20015;-76
2022/06/24 11:28:00;;;;;;;;;;;13.90;70.20;;;;;;5067515;28;19920;-72
2022/06/24 11:30:27;;;;;;;;;;;13.90;70.10;;;;;;5069139;28;19909;-73
2022/06/24 11:32:57;;;;;;;;;;;13.90;70.30;;;;;;5069721;28;19966;-72
2022/06/24 11:35:24;;;;;;;;;;;13.90;70.00;;;;;;5055764;28;19928;-76
2022/06/24 11:37:51;;;;;;;;;;;13.90;70.10;;;;;;5050131;28;19919;-73
2022/06/24 11:40:21;;;;;;;;;;;13.90;69.50;;;;;;5051628;28;20302;-73
2022/06/24 11:42:48;;;;;;;;;;;13.90;69.50;;;;;;5051660;28;19924;-72
2022/06/24 11:45:14;;;;;;;;;;;13.90;69.30;;;;;;5041448;28;20014;-74
2022/06/24 11:47:41;;;;;;;;;;;14.00;69.20;;;;;;5069877;28;19912;-74
2022/06/24 11:50:17;;;;;;;;;;;13.90;69.30;;;;;;5069173;28;20405;-76
2022/06/24 11:52:48;;;;;;;;;;;13.90;69.10;;;;;;5068684;28;19920;-76
2022/06/24 11:55:33;;;;;;;;;;;13.90;69.00;;;;;;5049582;28;20003;-73
2022/06/24 11:58:00;;;;;;;;;;;14.00;68.90;;;;;;5069352;28;19916;-73
2022/06/24 12:00:28;;;;;;;;;;;14.00;68.80;;;;;;5068976;28;19962;-77
2022/06/24 12:02:56;;;;;;;;;;;14.00;68.80;;;;;;5038874;28;20371;-77
2022/06/24 12:05:25;;;;;;;;;;;14.00;68.40;;;;;;5046845;28;19919;-77
2022/06/24 12:07:52;;;;;;;;;;;14.00;69.00;;;;;;5044383;28;20321;-77
2022/06/24 12:10:19;;;;;;;;;;;14.10;69.00;;;;;;5055281;28;19967;-76
2022/06/24 12:12:59;;;;;;;;;;;14.10;68.60;;;;;;5072128;28;19908;-77
2022/06/24 12:15:45;;;;;;;;;;;14.10;69.20;;;;;;5045807;28;19917;-77
2022/06/24 12:18:15;;;;;;;;;;;14.00;68.70;;;;;;5057444;28;19913;-77
2022/06/24 12:20:41;;;;;;;;;;;14.10;68.70;;;;;;5069716;28;19915;-77
2022/06/24 12:23:18;;;;;;;;;;;14.10;68.60;;;;;;5057372;28;19919;-77
2022/06/24 12:25:45;;;;;;;;;;;14.00;69.20;;;;;;5063246;28;19920;-77
2022/06/24 12:28:22;;;;;;;;;;;14.00;69.20;;;;;;5071530;28;19909;-77
2022/06/24 12:31:05;;;;;;;;;;;14.00;68.80;;;;;;5071798;28;19935;-77
2022/06/24 12:33:32;;;;;;;;;;;14.00;69.10;;;;;;5022308;28;19956;-76
2022/06/24 12:36:17;;;;;;;;;;;14.00;68.70;;;;;;5048560;28;19924;-78
2022/06/24 12:38:56;;;;;;;;;;;14.00;69.00;;;;;;5048358;28;20310;-77
2022/06/24 12:41:25;;;;;;;;;;;14.00;68.70;;;;;;5033765;28;19920;-77
2022/06/24 12:43:56;;;;;;;;;;;14.00;69.10;;;;;;5060135;28;19921;-77
2022/06/24 12:46:23;;;;;;;;;;;13.90;69.00;;;;;;5043664;28;20359;-77
2022/06/24 12:51:44;;;;;;;;;;;13.90;68.80;;;;;;5056083;28;19923;-77
2022/06/24 12:54:12;;;;;;;;;;;13.90;68.50;;;;;;5037515;28;19939;-76
2022/06/24 12:56:39;;;;;;;;;;;13.90;69.10;;;;;;5051726;28;19932;-77
2022/06/24 12:59:05;;;;;;;;;;;13.90;68.40;;;;;;5071280;28;20321;-77
2022/06/24 13:01:38;;;;;;;;;;;14.00;68.20;;;;;;5062581;28;19966;-77
2022/06/24 13:04:05;;;;;;;;;;;13.90;68.10;;;;;;5067157;28;20331;-77
2022/06/24 13:06:32;;;;;;;;;;;13.90;68.30;;;;;;5068106;28;19912;-77
2022/06/24 16:30:53;;;;;;;;;;;13.10;70.90;;;;;;5046605;28;19974;-76
2022/06/24 16:33:21;;;;;;;;;;;13.00;70.70;;;;;;5064806;28;19977;-77
2022/06/24 16:35:48;;;;;;;;;;;13.00;70.60;;;;;;5056382;28;20335;-77
2022/06/24 16:38:14;;;;;;;;;;;13.00;71.10;;;;;;5067967;28;19982;-76
2022/06/24 16:40:41;;;;;;;;;;;13.00;71.10;;;;;;5051310;28;19916;-76
2022/06/24 16:43:16;;;;;;;;;;;12.90;71.30;;;;;;5050288;28;19995;-76
2022/06/24 16:45:50;;;;;;;;;;;12.90;71.50;;;;;;5075114;28;19916;-77
2022/06/24 16:48:18;;;;;;;;;;;12.90;71.50;;;;;;5066091;28;20317;-76
2022/06/24 16:50:44;;;;;;;;;;;12.90;71.40;;;;;;5068432;28;20011;-76
2022/06/24 16:53:11;;;;;;;;;;;12.90;71.70;;;;;;5029410;28;19909;-77
2022/06/24 16:55:38;;;;;;;;;;;12.90;71.60;;;;;;5074993;28;19912;-76
2022/06/24 16:58:04;;;;;;;;;;;12.90;71.20;;;;;;5075060;28;19917;-76
2022/06/24 17:00:34;;;;;;;;;;;12.90;71.40;;;;;;5075826;28;19955;-76
2022/06/24 17:03:01;;;;;;;;;;;12.90;71.30;;;;;;5038988;28;19959;-76
2022/06/24 17:05:27;;;;;;;;;;;12.90;71.80;;;;;;5066253;28;19908;-76
2022/06/24 17:07:54;;;;;;;;;;;12.90;71.30;;;;;;5069234;28;19916;-77
2022/06/24 17:10:21;;;;;;;;;;;12.90;71.00;;;;;;5067530;28;19920;-77
2022/06/24 17:12:47;;;;;;;;;;;12.90;71.40;;;;;;5066696;28;19919;-76
2022/06/24 17:15:15;;;;;;;;;;;12.90;71.70;;;;;;5074390;28;19927;-77
2022/06/24 17:17:42;;;;;;;;;;;12.80;71.70;;;;;;5075036;28;19909;-76
2022/06/24 17:20:09;;;;;;;;;;;12.80;71.90;;;;;;5056858;28;19908;-76
2022/06/24 17:22:35;;;;;;;;;;;12.80;72.00;;;;;;5064272;28;19912;-76
2022/06/24 17:25:03;;;;;;;;;;;12.80;72.20;;;;;;5074744;28;19909;-76
2022/06/24 17:27:33;;;;;;;;;;;12.70;72.20;;;;;;5062484;28;19921;-76
2022/06/24 17:30:00;;;;;;;;;;;12.70;72.60;;;;;;5059779;28;19963;-77
2022/06/24 17:32:26;;;;;;;;;;;12.70;72.60;;;;;;5061068;28;20032;-77
2022/06/24 17:34:53;;;;;;;;;;;12.70;73.00;;;;;;5052973;28;19919;-77
2022/06/24 17:37:19;;;;;;;;;;;12.50;73.60;;;;;;5041627;28;20348;-77
2022/06/24 17:39:46;;;;;;;;;;;12.40;74.00;;;;;;5063801;28;20366;-76
2022/06/24 17:42:13;;;;;;;;;;;12.30;74.90;;;;;;5033959;28;19924;-77
2022/06/24 17:44:39;;;;;;;;;;;12.30;74.80;;;;;;5056950;28;19908;-76
2022/06/24 17:47:06;;;;;;;;;;;12.20;75.00;;;;;;5056550;28;20037;-77
2022/06/24 17:49:32;;;;;;;;;;;12.20;75.80;;;;;;5074287;28;19908;-76
2022/06/24 17:51:59;;;;;;;;;;;12.10;76.00;;;;;;5055077;28;19913;-77
2022/06/24 17:54:26;;;;;;;;;;;12.10;76.30;;;;;;5039606;28;20329;-76
2022/06/24 17:56:52;;;;;;;;;;;12.00;76.90;;;;;;5074431;28;19927;-76
2022/06/24 17:59:19;;;;;;;;;;;12.00;76.80;;;;;;5073910;28;19959;-76
2022/06/24 18:01:45;;;;;;;;;;;12.00;76.70;;;;;;5059478;28;19913;-76
2022/06/24 18:04:12;;;;;;;;;;;11.90;76.70;;;;;;5064022;28;19916;-76
2022/06/24 18:06:39;;;;;;;;;;;11.90;76.90;;;;;;5041886;28;19913;-77
2022/06/24 18:09:05;;;;;;;;;;;11.90;76.90;;;;;;5067272;28;19915;-76
2022/06/24 18:11:33;;;;;;;;;;;11.90;77.20;;;;;;5065530;28;19913;-76
2022/06/24 18:13:59;;;;;;;;;;;11.90;77.30;;;;;;5065470;28;20314;-73
2022/06/24 18:16:26;;;;;;;;;;;11.80;77.20;;;;;;5062209;28;20393;-77
2022/06/24 18:18:52;;;;;;;;;;;11.80;77.20;;;;;;5073918;28;19912;-76
2022/06/24 18:21:19;;;;;;;;;;;11.80;77.40;;;;;;5064045;28;20340;-76
2022/06/24 18:23:46;;;;;;;;;;;11.80;77.30;;;;;;5073940;28;20313;-77
2022/06/24 18:26:12;;;;;;;;;;;11.80;77.40;;;;;;5073678;28;20372;-77
2022/06/24 18:41:18;;;;;;;;;;;11.90;76.60;;;;;;5049398;28;19927;-76
2022/06/24 18:43:45;;;;;;;;;;;11.90;76.10;;;;;;5065203;28;19929;-77
2022/06/24 18:46:12;;;;;;;;;;;11.90;75.80;;;;;;5073035;28;19999;-76
2022/06/24 18:48:39;;;;;;;;;;;11.90;76.40;;;;;;5072059;28;19913;-76
2022/06/24 18:51:06;;;;;;;;;;;11.90;76.10;;;;;;5066052;28;19927;-77
2022/06/24 18:53:32;;;;;;;;;;;11.90;76.30;;;;;;5044341;28;19909;-77
2022/06/24 18:55:59;;;;;;;;;;;12.00;76.10;;;;;;5070093;28;19912;-76
2022/06/24 18:58:26;;;;;;;;;;;11.90;76.10;;;;;;5072839;28;19915;-76
2022/06/24 19:00:52;;;;;;;;;;;11.90;76.20;;;;;;5070079;28;19954;-77
2022/06/24 19:03:19;;;;;;;;;;;11.90;76.50;;;;;;5040809;28;19920;-76
2022/06/24 19:05:45;;;;;;;;;;;11.90;76.50;;;;;;5048928;28;20045;-77
2022/06/24 19:08:12;;;;;;;;;;;11.90;76.80;;;;;;5072736;28;19969;-77
2022/06/24 19:10:38;;;;;;;;;;;11.80;76.80;;;;;;5072898;28;19916;-77
2022/06/24 19:13:05;;;;;;;;;;;11.90;76.80;;;;;;5053168;28;19924;-76
2022/06/24 19:15:32;;;;;;;;;;;11.90;77.00;;;;;;5050761;28;19913;-77
2022/06/24 19:17:58;;;;;;;;;;;11.90;77.00;;;;;;5065393;28;19956;-76
2022/06/24 19:20:26;;;;;;;;;;;12.00;76.90;;;;;;5056585;28;19912;-77
2022/06/24 19:22:53;;;;;;;;;;;12.00;76.60;;;;;;5065637;28;19934;-76
2022/06/24 19:25:19;;;;;;;;;;;12.10;76.20;;;;;;5055814;28;19916;-76
2022/06/24 19:27:46;;;;;;;;;;;12.20;76.10;;;;;;5043897;28;19945;-76
2022/06/24 19:30:12;;;;;;;;;;;12.20;75.80;;;;;;5056810;28;19912;-76
2022/06/24 19:32:39;;;;;;;;;;;12.30;75.70;;;;;;5050144;28;19959;-72
2022/06/24 19:35:06;;;;;;;;;;;12.30;75.40;;;;;;5033157;28;19912;-73
2022/06/24 19:37:33;;;;;;;;;;;12.40;75.10;;;;;;5036199;28;19928;-72
2022/06/24 19:40:01;;;;;;;;;;;12.40;75.10;;;;;;5031108;28;20346;-73
2022/06/24 19:42:27;;;;;;;;;;;12.50;75.00;;;;;;5023730;28;19975;-73
2022/06/24 19:44:54;;;;;;;;;;;12.50;74.80;;;;;;5029150;28;20388;-72
2022/06/24 19:47:20;;;;;;;;;;;12.50;74.60;;;;;;5029370;28;19951;-72
2022/06/24 19:49:47;;;;;;;;;;;12.50;74.10;;;;;;5027234;28;19917;-73
2022/06/24 19:52:14;;;;;;;;;;;12.50;74.20;;;;;;5029065;28;20346;-72
2022/06/24 19:54:40;;;;;;;;;;;12.50;74.60;;;;;;5028982;28;20004;-73
2022/06/24 19:57:07;;;;;;;;;;;12.40;75.40;;;;;;5026639;28;19991;-70
2022/06/24 19:59:33;;;;;;;;;;;12.30;75.70;;;;;;5023923;28;19953;-69
2022/06/24 20:07:29;;;;;;;;;;;12.20;76.10;;;;;;5024491;28;20034;-73
2022/06/24 20:09:56;;;;;;;;;;;12.20;76.00;;;;;;5027573;28;20013;-72
